sensor_id;sensor_type;location;lat;lon;timestamp;pressure;altitude;pressure_sealevel;temperature;humidity
3590;BME280;1809;48.470;9.226;2023-04-01T00:01:04;47933.25;;;9.29;100.00
3590;BME280;1809;48.470;9.226;2023-04-01T00:03:30;60061.94;;;9.13;100.00
3590;BME280;1809;48.470;9.226;2023-04-01T00:05:57;61404.63;;;9.04;100.00
3590;BME280;1809;48.470;9.226;2023-04-01T00:08:24;64109.25;;;9.04;100.00
3590;BME280;1809;48.470;9.226;2023-04-01T00:10:50;65802.88;;;9.06;100.00
3590;BME280;1809;48.470;9.226;2023-04-01T00:13:15;66810.53;;;8.99;100.00
3590;BME280;1809;48.470;9.226;2023-04-01T00:15:42;76969.06;;;8.91;100.00
3590;BME280;1809;48.470;9.226;2023-04-01T00:18:07;75606.13;;;8.86;100.00
3590;BME280;1809;48.470;9.226;2023-04-01T00:20:34;74253.63;;;8.90;100.00
3590;BME280;1809;48.470;9.226;2023-04-01T00:22:59;76290.28;;;8.91;100.00
3590;BME280;1809;48.470;9.226;2023-04-01T00:25:24;78327.59;;;8.91;100.00
3590;BME280;1809;48.470;9.226;2023-04-01T00:27:50;76972.22;;;8.93;100.00
3590;BME280;1809;48.470;9.226;2023-04-01T00:30:16;74263.34;;;8.98;100.00
3590;BME280;1809;48.470;9.226;2023-04-01T00:32:42;69183.91;;;9.02;100.00
3590;BME280;1809;48.470;9.226;2023-04-01T00:35:08;67833.78;;;9.06;100.00
3590;BME280;1809;48.470;9.226;2023-04-01T00:37:37;64452.19;;;9.08;100.00
3590;BME280;1809;48.470;9.226;2023-04-01T00:40:04;68506.56;;;9.02;100.00
3590;BME280;1809;48.470;9.226;2023-04-01T00:42:30;75957.81;;;8.96;100.00
3590;BME280;1809;48.470;9.226;2023-04-01T00:44:56;76633.41;;;8.94;100.00
3590;BME280;1809;48.470;9.226;2023-04-01T00:47:23;73577.84;;;8.92;100.00
3590;BME280;1809;48.470;9.226;2023-04-01T00:49:51;73921.75;;;8.96;100.00
3590;BME280;1809;48.470;9.226;2023-04-01T00:52:21;69520.34;;;9.00;100.00
3590;BME280;1809;48.470;9.226;2023-04-01T00:54:50;71209.16;;;8.95;100.00
3590;BME280;1809;48.470;9.226;2023-04-01T00:57:27;76286.56;;;8.88;100.00
3590;BME280;1809;48.470;9.226;2023-04-01T00:59:55;75612.91;;;8.92;100.00
3590;BME280;1809;48.470;9.226;2023-04-01T01:02:21;73574.22;;;8.89;100.00
3590;BME280;1809;48.470;9.226;2023-04-01T01:04:47;73229.22;;;8.84;100.00
3590;BME280;1809;48.470;9.226;2023-04-01T01:07:27;73229.22;;;8.84;100.00
3590;BME280;1809;48.470;9.226;2023-04-01T01:12:40;70845.44;;;8.74;100.00
3590;BME280;1809;48.470;9.226;2023-04-01T01:15:21;70845.44;;;8.74;100.00
3590;BME280;1809;48.470;9.226;2023-04-01T01:20:57;63063.97;;;8.74;100.00
3590;BME280;1809;48.470;9.226;2023-04-01T01:23:42;56649.16;;;8.74;100.00
3590;BME280;1809;48.470;9.226;2023-04-01T01:26:33;52939.16;;;8.72;100.00
3590;BME280;1809;48.470;9.226;2023-04-01T01:34:26;48225.91;;;8.72;100.00
3590;BME280;1809;48.470;9.226;2023-04-01T01:36:58;41170.06;;;8.76;100.00
3590;BME280;1809;48.470;9.226;2023-04-01T01:39:28;37481.34;;;8.80;100.00
3590;BME280;1809;48.470;9.226;2023-04-01T01:41:58;37819.50;;;8.85;100.00
3590;BME280;1809;48.470;9.226;2023-04-01T01:44:28;26432.41;;;8.85;100.00
3590;BME280;1809;48.470;9.226;2023-04-01T01:46:56;19751.47;;;8.82;100.00
3590;BME280;1809;48.470;9.226;2023-04-01T01:49:23;16750.13;;;8.83;100.00
3590;BME280;1809;48.470;9.226;2023-04-01T01:51:49;13751.88;;;8.86;100.00
3590;BME280;1809;48.470;9.226;2023-04-01T01:54:17;16418.84;;;8.91;100.00
3590;BME280;1809;48.470;9.226;2023-04-01T01:56:46;12753.84;;;8.92;100.00
3590;BME280;1809;48.470;9.226;2023-04-01T01:59:14;17753.03;;;8.93;100.00
3590;BME280;1809;48.470;9.226;2023-04-01T02:01:45;16419.09;;;8.92;100.00
3590;BME280;1809;48.470;9.226;2023-04-01T02:04:13;11755.53;;;8.95;100.00
3590;BME280;1809;48.470;9.226;2023-04-01T02:06:50;3443.03;;;8.97;100.00
3590;BME280;1809;48.470;9.226;2023-04-01T02:09:19;-1202.81;;;8.91;100.00
3590;BME280;1809;48.470;9.226;2023-04-01T02:11:52;-3191.25;;;8.83;100.00
3590;BME280;1809;48.470;9.226;2023-04-01T02:14:23;4438.28;;;8.77;100.00
3590;BME280;1809;48.470;9.226;2023-04-01T02:17:14;13750.16;;;8.78;100.00
3590;BME280;1809;48.470;9.226;2023-04-01T02:20:08;19416.75;;;8.79;100.00
3590;BME280;1809;48.470;9.226;2023-04-01T02:22:35;29773.97;;;8.77;100.00
3590;BME280;1809;48.470;9.226;2023-04-01T02:25:10;45875.63;;;8.78;100.00
3590;BME280;1809;48.470;9.226;2023-04-01T02:27:36;67105.22;;;8.58;100.00
3590;BME280;1809;48.470;9.226;2023-04-01T02:30:03;76570.78;;;8.43;100.00
3590;BME280;1809;48.470;9.226;2023-04-01T02:32:30;82322.31;;;8.30;100.00
3590;BME280;1809;48.470;9.226;2023-04-01T02:34:56;87760.25;;;8.30;100.00
3590;BME280;1809;48.470;9.226;2023-04-01T02:37:22;87755.19;;;8.26;100.00
3590;BME280;1809;48.470;9.226;2023-04-01T02:39:48;87758.81;;;8.29;100.00
3590;BME280;1809;48.470;9.226;2023-04-01T02:42:14;89466.50;;;8.33;100.00
3590;BME280;1809;48.470;9.226;2023-04-01T02:44:39;88450.03;;;8.36;100.00
3590;BME280;1809;48.470;9.226;2023-04-01T02:47:05;87085.03;;;8.33;100.00
3590;BME280;1809;48.470;9.226;2023-04-01T02:49:30;82324.34;;;8.31;100.00
3590;BME280;1809;48.470;9.226;2023-04-01T02:51:56;82320.28;;;8.28;100.00
3590;BME280;1809;48.470;9.226;2023-04-01T02:54:21;81292.31;;;8.21;100.00
3590;BME280;1809;48.470;9.226;2023-04-01T02:56:46;80944.91;;;8.15;100.00
3590;BME280;1809;48.470;9.226;2023-04-01T02:59:12;78218.06;;;8.05;100.00
3590;BME280;1809;48.470;9.226;2023-04-01T03:01:37;77542.53;;;8.07;100.00
3590;BME280;1809;48.470;9.226;2023-04-01T03:04:03;80923.69;;;7.99;100.00
3590;BME280;1809;48.470;9.226;2023-04-01T03:06:29;86345.38;;;7.91;100.00
3590;BME280;1809;48.470;9.226;2023-04-01T03:08:54;89387.19;;;7.79;100.00
3590;BME280;1809;48.470;9.226;2023-04-01T03:11:20;91750.03;;;7.67;100.00
3590;BME280;1809;48.470;9.226;2023-04-01T03:13:46;91739.50;;;7.60;100.00
3590;BME280;1809;48.470;9.226;2023-04-01T03:16:11;91733.47;;;7.55;100.00
3590;BME280;1809;48.470;9.226;2023-04-01T03:18:36;87991.97;;;7.54;100.00
3590;BME280;1809;48.470;9.226;2023-04-01T03:21:15;86964.31;;;7.48;100.00
3590;BME280;1809;48.470;9.226;2023-04-01T03:23:40;84922.38;;;7.44;100.00
3590;BME280;1809;48.470;9.226;2023-04-01T03:26:06;84578.84;;;7.41;100.00
3590;BME280;1809;48.470;9.226;2023-04-01T03:28:31;82882.56;;;7.41;100.00
3590;BME280;1809;48.470;9.226;2023-04-01T03:30:56;82542.06;;;7.40;100.00
3590;BME280;1809;48.470;9.226;2023-04-01T03:33:22;81514.13;;;7.32;100.00
3590;BME280;1809;48.470;9.226;2023-04-01T03:35:47;86258.97;;;7.29;100.00
3590;BME280;1809;48.470;9.226;2023-04-01T03:38:12;93389.94;;;7.26;100.00
3590;BME280;1809;48.470;9.226;2023-04-01T03:40:42;98482.56;;;7.18;100.00
3590;BME280;1809;48.470;9.226;2023-04-01T03:43:07;103240.28;;;7.10;100.00
3590;BME280;1809;48.470;9.226;2023-04-01T03:45:34;106639.66;;;7.03;100.00
3590;BME280;1809;48.470;9.226;2023-04-01T03:48:00;107987.25;;;6.93;100.00
3590;BME280;1809;48.470;9.226;2023-04-01T03:50:25;110027.88;;;6.88;100.00
3590;BME280;1809;48.470;9.226;2023-04-01T03:52:51;110691.84;;;6.78;100.00
3590;BME280;1809;48.470;9.226;2023-04-01T03:55:16;112405.56;;;6.81;100.00
3590;BME280;1809;48.470;9.226;2023-04-01T03:57:43;112749.16;;;6.82;100.00
3590;BME280;1809;48.470;9.226;2023-04-01T04:00:09;113089.09;;;6.81;100.00
3590;BME280;1809;48.470;9.226;2023-04-01T04:02:34;112737.97;;;6.76;100.00
3590;BME280;1809;48.470;9.226;2023-04-01T04:05:00;113424.34;;;6.77;100.00
3590;BME280;1809;48.470;9.226;2023-04-01T04:07:26;114466.00;;;6.86;100.00
3590;BME280;1809;48.470;9.226;2023-04-01T04:09:51;113148.88;;;7.13;100.00
3590;BME280;1809;48.470;9.226;2023-04-01T04:12:16;107700.09;;;7.24;100.00
3590;BME280;1809;48.470;9.226;2023-04-01T04:14:41;105317.28;;;7.28;100.00
3590;BME280;1809;48.470;9.226;2023-04-01T04:17:10;101926.97;;;7.40;100.00
3590;BME280;1809;48.470;9.226;2023-04-01T04:19:38;94115.13;;;7.55;100.00
3590;BME280;1809;48.470;9.226;2023-04-01T04:22:04;89024.53;;;7.63;100.00
3590;BME280;1809;48.470;9.226;2023-04-01T04:24:29;81236.38;;;7.79;100.00
3590;BME280;1809;48.470;9.226;2023-04-01T04:26:54;75138.38;;;7.81;100.00
3590;BME280;1809;48.470;9.226;2023-04-01T04:29:20;72083.25;;;7.73;100.00
3590;BME280;1809;48.470;9.226;2023-04-01T04:31:45;67031.91;;;7.91;100.00
3590;BME280;1809;48.470;9.226;2023-04-01T04:34:11;58259.28;;;7.92;100.00
3590;BME280;1809;48.470;9.226;2023-04-01T04:36:36;55229.31;;;7.94;100.00
3590;BME280;1809;48.470;9.226;2023-04-01T04:39:01;51864.56;;;7.95;100.00
3590;BME280;1809;48.470;9.226;2023-04-01T04:41:28;47496.53;;;7.98;100.00
3590;BME280;1809;48.470;9.226;2023-04-01T04:43:55;45482.75;;;8.00;100.00
3590;BME280;1809;48.470;9.226;2023-04-01T04:46:22;34091.28;;;8.11;100.00
3590;BME280;1809;48.470;9.226;2023-04-01T04:48:47;27072.72;;;8.18;100.00
3590;BME280;1809;48.470;9.226;2023-04-01T04:51:15;21730.84;;;8.14;100.00
3590;BME280;1809;48.470;9.226;2023-04-01T04:53:41;19064.47;;;8.16;100.00
3590;BME280;1809;48.470;9.226;2023-04-01T04:56:06;21730.69;;;8.13;100.00
3590;BME280;1809;48.470;9.226;2023-04-01T04:58:31;21398.06;;;8.16;100.00
3590;BME280;1809;48.470;9.226;2023-04-01T05:00:57;16400.56;;;8.19;100.00
3590;BME280;1809;48.470;9.226;2023-04-01T05:03:22;16732.00;;;8.13;100.00
3590;BME280;1809;48.470;9.226;2023-04-01T05:05:51;12406.06;;;8.13;100.00
3590;BME280;1809;48.470;9.226;2023-04-01T05:08:17;10411.53;;;8.14;100.00
3590;BME280;1809;48.470;9.226;2023-04-01T05:10:43;4766.78;;;8.20;100.00
3590;BME280;1809;48.470;9.226;2023-04-01T05:13:08;-1863.06;;;8.26;100.00
3590;BME280;1809;48.470;9.226;2023-04-01T05:15:35;-3849.50;;;8.25;100.00
3590;BME280;1809;48.470;9.226;2023-04-01T05:18:00;-9142.88;;;8.38;100.00
3590;BME280;1809;48.470;9.226;2023-04-01T05:20:26;-16406.63;;;8.52;100.00
3590;BME280;1809;48.470;9.226;2023-04-01T05:22:56;-16408.19;;;8.58;100.00
3590;BME280;1809;48.470;9.226;2023-04-01T05:25:22;-16410.00;;;8.64;100.00
3590;BME280;1809;48.470;9.226;2023-04-01T05:27:47;-16410.28;;;8.65;100.00
3590;BME280;1809;48.470;9.226;2023-04-01T05:30:13;-16411.13;;;8.69;100.00
3590;BME280;1809;48.470;9.226;2023-04-01T05:32:38;-16411.41;;;8.70;100.00
3590;BME280;1809;48.470;9.226;2023-04-01T05:35:04;-16412.81;;;8.75;100.00
3590;BME280;1809;48.470;9.226;2023-04-01T05:37:30;-16414.94;;;8.82;100.00
3590;BME280;1809;48.470;9.226;2023-04-01T05:39:56;-16417.31;;;8.91;100.00
3590;BME280;1809;48.470;9.226;2023-04-01T05:42:24;-16417.31;;;8.91;100.00
3590;BME280;1809;48.470;9.226;2023-04-01T05:44:50;-16419.84;;;9.00;100.00
3590;BME280;1809;48.470;9.226;2023-04-01T05:47:15;-16421.25;;;9.05;100.00
3590;BME280;1809;48.470;9.226;2023-04-01T05:49:41;-16427.28;;;9.27;100.00
3590;BME280;1809;48.470;9.226;2023-04-01T05:52:06;-16434.19;;;9.51;100.00
3590;BME280;1809;48.470;9.226;2023-04-01T05:54:33;-16444.16;;;9.87;100.00
3590;BME280;1809;48.470;9.226;2023-04-01T05:56:58;-16438.66;;;9.67;100.00
3590;BME280;1809;48.470;9.226;2023-04-01T05:59:24;-16437.25;;;9.62;100.00
3590;BME280;1809;48.470;9.226;2023-04-01T06:01:50;-16435.03;;;9.54;100.00
3590;BME280;1809;48.470;9.226;2023-04-01T06:04:17;-16434.31;;;9.52;100.00
3590;BME280;1809;48.470;9.226;2023-04-01T06:06:43;-16438.94;;;9.68;100.00
3590;BME280;1809;48.470;9.226;2023-04-01T06:09:17;-16446.53;;;9.96;100.00
3590;BME280;1809;48.470;9.226;2023-04-01T06:12:29;-16467.06;;;10.69;100.00
3590;BME280;1809;48.470;9.226;2023-04-01T06:17:59;-16464.09;;;10.59;100.00
3590;BME280;1809;48.470;9.226;2023-04-01T06:50:34;-16465.66;;;10.64;100.00
3590;BME280;1809;48.470;9.226;2023-04-01T06:56:10;-16467.34;;;10.70;100.00
3590;BME280;1809;48.470;9.226;2023-04-01T06:58:48;-16465.94;;;10.65;100.00
3590;BME280;1809;48.470;9.226;2023-04-01T07:01:36;-16464.53;;;10.60;100.00
3590;BME280;1809;48.470;9.226;2023-04-01T07:04:18;-16462.00;;;10.51;100.00
3590;BME280;1809;48.470;9.226;2023-04-01T07:07:28;-16465.66;;;10.64;100.00
3590;BME280;1809;48.470;9.226;2023-04-01T07:09:56;-16466.78;;;10.68;100.00
3590;BME280;1809;48.470;9.226;2023-04-01T07:14:59;-16466.78;;;10.68;100.00
3590;BME280;1809;48.470;9.226;2023-04-01T07:17:32;-16466.06;;;10.66;100.00
3590;BME280;1809;48.470;9.226;2023-04-01T07:22:48;-16468.88;;;10.76;100.00
3590;BME280;1809;48.470;9.226;2023-04-01T07:25:18;-16467.34;;;10.70;100.00
3590;BME280;1809;48.470;9.226;2023-04-01T07:27:45;-16471.53;;;10.86;100.00
3590;BME280;1809;48.470;9.226;2023-04-01T07:30:16;-16469.44;;;10.78;100.00
3590;BME280;1809;48.470;9.226;2023-04-01T07:33:08;-16469.88;;;10.79;100.00
3590;BME280;1809;48.470;9.226;2023-04-01T07:35:50;-16470.13;;;10.80;100.00
3590;BME280;1809;48.470;9.226;2023-04-01T07:41:47;-16468.19;;;10.73;100.00
3590;BME280;1809;48.470;9.226;2023-04-01T07:47:25;-16471.81;;;10.87;100.00
3590;BME280;1809;48.470;9.226;2023-04-01T07:55:52;-16472.81;;;10.90;100.00
3590;BME280;1809;48.470;9.226;2023-04-01T07:58:51;-16474.34;;;10.96;100.00
3590;BME280;1809;48.470;9.226;2023-04-01T08:01:44;-16473.94;;;10.94;100.00
3590;BME280;1809;48.470;9.226;2023-04-01T08:04:49;-16472.38;;;10.89;100.00
3590;BME280;1809;48.470;9.226;2023-04-01T08:10:20;-16473.09;;;10.91;100.00
3590;BME280;1809;48.470;9.226;2023-04-01T08:13:08;-16470.69;;;10.83;100.00
3590;BME280;1809;48.470;9.226;2023-04-01T08:15:53;-16467.63;;;10.71;100.00
3590;BME280;1809;48.470;9.226;2023-04-01T08:21:05;-16472.94;;;10.91;100.00
3590;BME280;1809;48.470;9.226;2023-04-01T08:23:47;-16469.56;;;10.78;100.00
3590;BME280;1809;48.470;9.226;2023-04-01T08:29:10;-16469.16;;;10.77;100.00
3590;BME280;1809;48.470;9.226;2023-04-01T08:31:45;-16469.03;;;10.76;100.00
3590;BME280;1809;48.470;9.226;2023-04-01T08:34:17;-16470.97;;;10.84;100.00
3590;BME280;1809;48.470;9.226;2023-04-01T08:36:52;-16477.72;;;11.08;100.00
3590;BME280;1809;48.470;9.226;2023-04-01T08:39:34;-16477.88;;;11.08;100.00
3590;BME280;1809;48.470;9.226;2023-04-01T08:47:44;-16479.00;;;11.12;100.00
3590;BME280;1809;48.470;9.226;2023-04-01T08:50:46;-16478.72;;;11.11;100.00
3590;BME280;1809;48.470;9.226;2023-04-01T09:02:01;-16477.44;;;11.07;100.00
3590;BME280;1809;48.470;9.226;2023-04-01T09:10:15;-16477.03;;;11.05;100.00
3590;BME280;1809;48.470;9.226;2023-04-01T09:13:13;-16470.69;;;10.83;100.00
3590;BME280;1809;48.470;9.226;2023-04-01T09:29:52;-16455.25;;;10.27;100.00
3590;BME280;1809;48.470;9.226;2023-04-01T09:32:26;-16456.50;;;10.32;100.00
3590;BME280;1809;48.470;9.226;2023-04-01T09:35:24;-16464.38;;;10.60;100.00
3590;BME280;1809;48.470;9.226;2023-04-01T09:46:32;-16458.63;;;10.39;100.00
3590;BME280;1809;48.470;9.226;2023-04-01T09:54:54;-13024.00;;;10.23;100.00
3590;BME280;1809;48.470;9.226;2023-04-01T10:00:45;-16463.41;;;10.56;100.00
3590;BME280;1809;48.470;9.226;2023-04-01T10:06:51;-16469.88;;;10.79;100.00
3590;BME280;1809;48.470;9.226;2023-04-01T10:28:57;40563.22;;;9.76;100.00
3590;BME280;1809;48.470;9.226;2023-04-01T10:38:13;55045.19;;;9.66;100.00
3590;BME280;1809;48.470;9.226;2023-04-01T10:52:22;454.72;;;10.39;100.00
3590;BME280;1809;48.470;9.226;2023-04-01T10:55:04;-8181.09;;;10.44;100.00
3590;BME280;1809;48.470;9.226;2023-04-01T11:12:35;-16471.53;;;10.86;100.00
3590;BME280;1809;48.470;9.226;2023-04-01T11:17:42;-16469.72;;;10.79;100.00
3590;BME280;1809;48.470;9.226;2023-04-01T11:23:45;-16474.50;;;10.96;100.00
3590;BME280;1809;48.470;9.226;2023-04-01T11:26:52;-16480.53;;;11.18;100.00
3590;BME280;1809;48.470;9.226;2023-04-01T11:35:01;-16469.56;;;10.78;100.00
3590;BME280;1809;48.470;9.226;2023-04-01T11:37:41;-16472.53;;;10.89;100.00
3590;BME280;1809;48.470;9.226;2023-04-01T11:42:54;-16469.03;;;10.76;100.00
3590;BME280;1809;48.470;9.226;2023-04-01T11:48:21;-16465.94;;;10.65;100.00
3590;BME280;1809;48.470;9.226;2023-04-01T11:53:37;-16475.19;;;10.99;100.00
3590;BME280;1809;48.470;9.226;2023-04-01T11:56:14;-16479.69;;;11.15;100.00
3590;BME280;1809;48.470;9.226;2023-04-01T11:59:09;-16485.03;;;11.34;100.00
3590;BME280;1809;48.470;9.226;2023-04-01T12:04:41;-16488.81;;;11.48;100.00
3590;BME280;1809;48.470;9.226;2023-04-01T12:10:12;-16485.72;;;11.37;100.00
3590;BME280;1809;48.470;9.226;2023-04-01T12:15:43;-16487.13;;;11.42;100.00
3590;BME280;1809;48.470;9.226;2023-04-01T12:18:38;-12160.81;;;11.26;100.00
3590;BME280;1809;48.470;9.226;2023-04-01T12:23:56;20161.69;;;11.26;100.00
3590;BME280;1809;48.470;9.226;2023-04-01T12:26:39;31910.19;;;11.30;100.00
3590;BME280;1809;48.470;9.226;2023-04-01T12:29:58;26874.88;;;11.41;100.00
3590;BME280;1809;48.470;9.226;2023-04-01T12:38:44;32255.47;;;11.48;100.00
3590;BME280;1809;48.470;9.226;2023-04-01T12:41:46;54505.84;;;11.22;100.00
3590;BME280;1809;48.470;9.226;2023-04-01T12:55:20;62294.00;;;11.17;100.00
3590;BME280;1809;48.470;9.226;2023-04-01T12:58:12;43023.09;;;11.29;100.00
3590;BME280;1809;48.470;9.226;2023-04-01T13:00:52;30918.44;;;11.65;100.00
3590;BME280;1809;48.470;9.226;2023-04-01T13:03:37;-10192.81;;;11.69;100.00
3590;BME280;1809;48.470;9.226;2023-04-01T13:19:57;-16504.97;;;12.06;100.00
3590;BME280;1809;48.470;9.226;2023-04-01T13:28:21;-16511.13;;;12.28;100.00
3590;BME280;1809;48.470;9.226;2023-04-01T13:31:09;-16521.25;;;12.64;100.00
3590;BME280;1809;48.470;9.226;2023-04-01T13:33:46;-16513.38;;;12.36;100.00
3590;BME280;1809;48.470;9.226;2023-04-01T13:36:22;-16523.75;;;12.73;100.00
3590;BME280;1809;48.470;9.226;2023-04-01T13:42:16;-16515.34;;;12.43;100.00
3590;BME280;1809;48.470;9.226;2023-04-01T13:45:01;-16514.78;;;12.41;100.00
3590;BME280;1809;48.470;9.226;2023-04-01T13:53:20;-16497.09;;;11.77;100.00
3590;BME280;1809;48.470;9.226;2023-04-01T14:12:49;-16511.41;;;12.29;100.00
3590;BME280;1809;48.470;9.226;2023-04-01T14:23:49;-16500.75;;;11.91;100.00
3590;BME280;1809;48.470;9.226;2023-04-01T14:26:35;-16499.22;;;11.85;100.00
3590;BME280;1809;48.470;9.226;2023-04-01T14:29:42;-16499.63;;;11.86;100.00
3590;BME280;1809;48.470;9.226;2023-04-01T14:33:00;-16501.31;;;11.93;100.00
3590;BME280;1809;48.470;9.226;2023-04-01T14:35:41;-16498.78;;;11.83;100.00
3590;BME280;1809;48.470;9.226;2023-04-01T14:38:25;-16507.22;;;12.14;100.00
3590;BME280;1809;48.470;9.226;2023-04-01T14:43:48;-16515.91;;;12.45;100.00
3590;BME280;1809;48.470;9.226;2023-04-01T14:49:22;-16521.53;;;12.65;100.00
3590;BME280;1809;48.470;9.226;2023-04-01T14:51:50;-16522.66;;;12.69;100.00
3590;BME280;1809;48.470;9.226;2023-04-01T14:54:37;-16520.41;;;12.61;100.00
3590;BME280;1809;48.470;9.226;2023-04-01T14:57:30;-16516.63;;;12.48;100.00
3590;BME280;1809;48.470;9.226;2023-04-01T15:00:15;-16514.94;;;12.42;100.00
3590;BME280;1809;48.470;9.226;2023-04-01T15:03:14;-16518.28;;;12.54;100.00
3590;BME280;1809;48.470;9.226;2023-04-01T15:05:49;-16520.13;;;12.60;100.00
3590;BME280;1809;48.470;9.226;2023-04-01T15:08:29;-16515.34;;;12.43;100.00
3590;BME280;1809;48.470;9.226;2023-04-01T15:21:16;-16496.25;;;11.74;100.00
3590;BME280;1809;48.470;9.226;2023-04-01T15:23:52;-16495.13;;;11.70;100.00
3590;BME280;1809;48.470;9.226;2023-04-01T15:26:33;-16498.09;;;11.81;100.00
3590;BME280;1809;48.470;9.226;2023-04-01T15:29:19;-16493.88;;;11.66;100.00
3590;BME280;1809;48.470;9.226;2023-04-01T15:31:52;-16495.56;;;11.72;100.00
3590;BME280;1809;48.470;9.226;2023-04-01T15:39:58;-16483.19;;;11.27;100.00
3590;BME280;1809;48.470;9.226;2023-04-01T15:42:46;-16481.78;;;11.22;100.00
3590;BME280;1809;48.470;9.226;2023-04-01T15:45:31;-16480.81;;;11.19;100.00
3590;BME280;1809;48.470;9.226;2023-04-01T15:48:13;-16482.06;;;11.23;100.00
3590;BME280;1809;48.470;9.226;2023-04-01T15:51:02;-16485.72;;;11.37;100.00
3590;BME280;1809;48.470;9.226;2023-04-01T15:56:19;-16485.31;;;11.35;100.00
3590;BME280;1809;48.470;9.226;2023-04-01T15:59:06;-16484.59;;;11.32;100.00
3590;BME280;1809;48.470;9.226;2023-04-01T16:01:59;-16484.19;;;11.31;100.00
3590;BME280;1809;48.470;9.226;2023-04-01T16:10:30;-16477.59;;;11.07;100.00
3590;BME280;1809;48.470;9.226;2023-04-01T16:17:59;-16478.28;;;11.10;100.00
3590;BME280;1809;48.470;9.226;2023-04-01T16:20:42;-16477.16;;;11.06;100.00
3590;BME280;1809;48.470;9.226;2023-04-01T16:23:42;-16477.88;;;11.08;100.00
3590;BME280;1809;48.470;9.226;2023-04-01T16:34:16;-16478.56;;;11.11;100.00
3590;BME280;1809;48.470;9.226;2023-04-01T16:36:47;-16478.28;;;11.10;100.00
3590;BME280;1809;48.470;9.226;2023-04-01T16:39:37;-16479.69;;;11.15;100.00
3590;BME280;1809;48.470;9.226;2023-04-01T16:42:14;-16477.44;;;11.07;100.00
3590;BME280;1809;48.470;9.226;2023-04-01T16:44:49;-16479.41;;;11.14;100.00
3590;BME280;1809;48.470;9.226;2023-04-01T16:47:19;-16480.81;;;11.19;100.00
3590;BME280;1809;48.470;9.226;2023-04-01T16:49:50;-16481.38;;;11.21;100.00
3590;BME280;1809;48.470;9.226;2023-04-01T16:52:30;-16479.41;;;11.14;100.00
3590;BME280;1809;48.470;9.226;2023-04-01T16:55:16;-16478.72;;;11.11;100.00
3590;BME280;1809;48.470;9.226;2023-04-01T16:57:50;-16476.59;;;11.04;100.00
3590;BME280;1809;48.470;9.226;2023-04-01T17:03:02;-16478.16;;;11.09;100.00
3590;BME280;1809;48.470;9.226;2023-04-01T17:08:28;-16476.31;;;11.03;100.00
3590;BME280;1809;48.470;9.226;2023-04-01T17:11:21;-16476.88;;;11.05;100.00
3590;BME280;1809;48.470;9.226;2023-04-01T17:30:11;-16470.97;;;10.84;100.00
3590;BME280;1809;48.470;9.226;2023-04-01T17:35:38;-16470.41;;;10.82;100.00
3590;BME280;1809;48.470;9.226;2023-04-01T17:43:52;-16469.56;;;10.78;100.00
3590;BME280;1809;48.470;9.226;2023-04-01T17:46:31;-16468.44;;;10.74;100.00
3590;BME280;1809;48.470;9.226;2023-04-01T17:49:36;-16467.06;;;10.69;100.00
3590;BME280;1809;48.470;9.226;2023-04-01T17:52:37;-16466.91;;;10.69;100.00
3590;BME280;1809;48.470;9.226;2023-04-01T17:57:52;-16464.25;;;10.59;100.00
3590;BME280;1809;48.470;9.226;2023-04-01T18:05:51;-16463.97;;;10.58;100.00
3590;BME280;1809;48.470;9.226;2023-04-01T18:08:26;-16461.84;;;10.51;100.00
3590;BME280;1809;48.470;9.226;2023-04-01T18:19:25;-16460.31;;;10.45;100.00
3590;BME280;1809;48.470;9.226;2023-04-01T18:22:08;-16462.00;;;10.51;100.00
3590;BME280;1809;48.470;9.226;2023-04-01T18:24:44;-16461.16;;;10.48;100.00
3590;BME280;1809;48.470;9.226;2023-04-01T18:27:16;-16460.31;;;10.45;100.00
3590;BME280;1809;48.470;9.226;2023-04-01T18:29:50;-16460.88;;;10.47;100.00
3590;BME280;1809;48.470;9.226;2023-04-01T18:32:50;-16459.75;;;10.43;100.00
3590;BME280;1809;48.470;9.226;2023-04-01T18:38:04;-16457.50;;;10.35;100.00
3590;BME280;1809;48.470;9.226;2023-04-01T18:40:50;-16456.66;;;10.32;100.00
3590;BME280;1809;48.470;9.226;2023-04-01T18:43:43;-16454.97;;;10.26;100.00
3590;BME280;1809;48.470;9.226;2023-04-01T18:49:30;-16453.56;;;10.21;100.00
3590;BME280;1809;48.470;9.226;2023-04-01T18:52:08;-12188.31;;;10.10;100.00
3590;BME280;1809;48.470;9.226;2023-04-01T18:57:49;19118.81;;;9.99;100.00
3590;BME280;1809;48.470;9.226;2023-04-01T19:00:22;27147.75;;;9.94;100.00
3590;BME280;1809;48.470;9.226;2023-04-01T19:02:59;41917.94;;;9.90;100.00
3590;BME280;1809;48.470;9.226;2023-04-01T19:05:44;54037.63;;;9.72;100.00
3590;BME280;1809;48.470;9.226;2023-04-01T19:13:51;68921.59;;;9.70;100.00
3590;BME280;1809;48.470;9.226;2023-04-01T19:21:40;95805.38;;;9.66;100.00
3590;BME280;1809;48.470;9.226;2023-04-01T19:26:48;103635.56;;;9.44;100.00
3590;BME280;1809;48.470;9.226;2023-04-01T19:29:30;109104.59;;;9.37;100.00
3590;BME280;1809;48.470;9.226;2023-04-01T19:37:38;110414.31;;;9.03;100.00
3590;BME280;1809;48.470;9.226;2023-04-01T19:56:23;112073.13;;;8.73;100.00
3590;BME280;1809;48.470;9.226;2023-04-01T19:59:12;106614.28;;;8.85;100.00
3590;BME280;1809;48.470;9.226;2023-04-01T20:01:48;100105.19;;;8.78;100.00
3590;BME280;1809;48.470;9.226;2023-04-01T20:04:29;97366.09;;;8.73;100.00
3590;BME280;1809;48.470;9.226;2023-04-01T20:18:04;104126.41;;;8.30;100.00
3590;BME280;1809;48.470;9.226;2023-04-01T20:20:31;104126.41;;;8.30;100.00
3590;BME280;1809;48.470;9.226;2023-04-01T20:23:26;99011.22;;;8.35;100.00
3590;BME280;1809;48.470;9.226;2023-04-01T20:26:06;99363.97;;;8.42;100.00
3590;BME280;1809;48.470;9.226;2023-04-01T20:28:42;100040.13;;;8.38;100.00
3590;BME280;1809;48.470;9.226;2023-04-01T20:31:17;101396.78;;;8.32;100.00
3590;BME280;1809;48.470;9.226;2023-04-01T20:42:18;92574.88;;;8.62;100.00
3590;BME280;1809;48.470;9.226;2023-04-01T20:45:14;83381.56;;;8.59;100.00
3590;BME280;1809;48.470;9.226;2023-04-01T20:51:10;76582.06;;;8.52;100.00
3590;BME280;1809;48.470;9.226;2023-04-01T20:53:50;75548.03;;;8.39;100.00
3590;BME280;1809;48.470;9.226;2023-04-01T20:58:54;80941.59;;;8.13;100.00
3590;BME280;1809;48.470;9.226;2023-04-01T21:01:40;84318.34;;;7.99;100.00
3590;BME280;1809;48.470;9.226;2023-04-01T21:09:53;91099.69;;;7.87;100.00
3590;BME280;1809;48.470;9.226;2023-04-01T21:18:10;73839.63;;;8.27;100.00
3590;BME280;1809;48.470;9.226;2023-04-01T21:20:48;65403.16;;;8.48;100.00
3590;BME280;1809;48.470;9.226;2023-04-01T21:37:43;-16431.38;;;9.41;100.00